Time;durP1;ratioP1;P1;durP2;ratioP2;P2;SDS_P1;SDS_P2;PMS_P1;PMS_P2;Temp;Humidity;BMP_temperature;BMP_pressure;BME280_temperature;BME280_humidity;BME280_pressure;Samples;Min_cycle;Max_cycle;Signal;HPM_P1;HPM_P2
2023/02/14 00:02:40;;;;;;;;;;;;;;;17.73;34.03;97422.53;10427321;28;1993;-54
2023/02/14 00:07:40;;;;;;;;;;;;;;;17.72;33.94;97418.28;10425063;28;2078;-52
2023/02/14 00:12:41;;;;;;;;;;;;;;;17.72;34.11;97428.78;10422564;28;1962;-53
2023/02/14 00:17:41;;;;;;;;;;;;;;;17.67;34.03;97426.03;10419631;28;2050;-51
2023/02/14 00:22:41;;;;;;;;;;;;;;;17.67;34.10;97430.44;10445509;28;1971;-54
2023/02/14 00:27:41;;;;;;;;;;;;;;;17.65;34.03;97427.25;10461306;28;1962;-53
2023/02/14 00:32:42;;;;;;;;;;;;;;;17.63;34.07;97435.34;10470522;28;1993;-52
2023/02/14 00:37:42;;;;;;;;;;;;;;;17.62;34.06;97430.31;10457723;28;1909;-55
2023/02/14 00:42:42;;;;;;;;;;;;;;;17.60;34.01;97429.69;10463929;28;1951;-51
2023/02/14 00:47:42;;;;;;;;;;;;;;;17.60;34.07;97434.94;10466170;28;2037;-55
2023/02/14 00:52:43;;;;;;;;;;;;;;;17.60;33.97;97422.63;10456506;28;2077;-52
2023/02/14 00:57:43;;;;;;;;;;;;;;;17.59;33.88;97436.78;10447999;28;2017;-49
2023/02/14 01:02:43;;;;;;;;;;;;;;;17.58;33.96;97443.03;10465973;28;2004;-52
2023/02/14 01:07:43;;;;;;;;;;;;;;;17.59;33.84;97435.97;10468409;28;2008;-51
2023/02/14 01:12:44;;;;;;;;;;;;;;;17.59;33.78;97444.66;10462606;28;1930;-53
2023/02/14 01:17:44;;;;;;;;;;;;;;;17.59;33.77;97443.84;10476682;28;1984;-53
2023/02/14 01:22:44;;;;;;;;;;;;;;;17.60;33.72;97422.63;10444772;28;1997;-54
2023/02/14 01:27:45;;;;;;;;;;;;;;;17.62;33.63;97436.34;10424892;28;1935;-52
2023/02/14 01:32:45;;;;;;;;;;;;;;;17.62;33.62;97435.56;10439052;28;2086;-51
2023/02/14 01:37:45;;;;;;;;;;;;;;;17.65;33.50;97449.03;10426058;28;1982;-53
2023/02/14 01:42:45;;;;;;;;;;;;;;;17.66;33.41;97448.00;10424157;28;1989;-55
2023/02/14 01:47:47;;;;;;;;;;;;;;;17.68;33.41;97443.34;10441547;28;2027;-55
2023/02/14 01:52:54;;;;;;;;;;;;;;;17.70;33.33;97441.31;10418152;28;2128;-53
2023/02/14 01:57:55;;;;;;;;;;;;;;;17.71;33.33;97448.19;10409208;28;2003;-53
2023/02/14 02:02:56;;;;;;;;;;;;;;;17.71;33.36;97445.56;10431022;28;1954;-53
2023/02/14 02:07:56;;;;;;;;;;;;;;;17.74;33.31;97442.47;10405635;28;1989;-52
2023/02/14 02:12:58;;;;;;;;;;;;;;;17.74;33.33;97439.84;10435083;28;1951;-54
2023/02/14 02:18:25;;;;;;;;;;;;;;;17.76;33.19;97437.81;10431334;28;1953;-48
2023/02/14 02:23:44;;;;;;;;;;;;;;;17.77;33.13;97434.19;10443985;28;2220;-52
2023/02/14 02:29:13;;;;;;;;;;;;;;;17.77;33.09;97428.97;10439475;28;1923;-48
2023/02/14 02:34:22;;;;;;;;;;;;;;;17.80;33.13;97430.34;10426124;28;1931;-47
2023/02/14 02:39:33;;;;;;;;;;;;;;;17.79;33.11;97428.72;10433419;28;1978;-51
2023/02/14 02:44:51;;;;;;;;;;;;;;;17.79;33.07;97423.47;10410374;28;1951;-53
2023/02/14 02:55:17;;;;;;;;;;;;;;;17.79;33.00;97411.19;10417033;28;1977;-54
2023/02/14 03:00:18;;;;;;;;;;;;;;;17.79;33.03;97403.31;10402888;28;2093;-52
2023/02/14 03:05:18;;;;;;;;;;;;;;;17.80;33.02;97414.63;10404423;28;1903;-54
2023/02/14 03:10:19;;;;;;;;;;;;;;;17.81;32.99;97408.34;10433292;28;2050;-53
2023/02/14 03:15:40;;;;;;;;;;;;;;;17.80;32.94;97401.50;10424310;28;1991;-54
2023/02/14 03:20:46;;;;;;;;;;;;;;;17.82;32.91;97407.31;10422376;28;2009;-51
2023/02/14 03:26:05;;;;;;;;;;;;;;;17.84;32.99;97426.28;10424626;28;2002;-53
2023/02/14 03:31:26;;;;;;;;;;;;;;;17.81;32.90;97417.00;10424846;28;2045;-51
2023/02/14 03:36:28;;;;;;;;;;;;;;;17.80;33.00;97407.53;10420024;28;1978;-52
2023/02/14 03:41:30;;;;;;;;;;;;;;;17.83;32.97;97404.47;10417263;28;1961;-53
2023/02/14 03:46:35;;;;;;;;;;;;;;;17.83;32.89;97422.84;10400774;28;1979;-48
2023/02/14 03:51:35;;;;;;;;;;;;;;;17.82;32.85;97423.88;10405104;28;1958;-54
2023/02/14 03:56:40;;;;;;;;;;;;;;;17.84;32.96;97426.28;10419951;28;1966;-51
2023/02/14 04:01:45;;;;;;;;;;;;;;;17.85;32.84;97417.38;10411092;28;1972;-51
2023/02/14 04:06:45;;;;;;;;;;;;;;;17.82;32.80;97423.88;10406644;28;1951;-54
2023/02/14 04:11:45;;;;;;;;;;;;;;;17.81;32.75;97409.16;10422146;28;1919;-53
2023/02/14 04:22:05;;;;;;;;;;;;;;;17.83;32.79;97422.84;10430448;28;1981;-52
2023/02/14 04:27:11;;;;;;;;;;;;;;;17.83;32.72;97420.22;10432234;28;2019;-53
2023/02/14 04:32:12;;;;;;;;;;;;;;;17.83;32.77;97417.59;10434252;28;2010;-53
2023/02/14 04:37:13;;;;;;;;;;;;;;;17.82;32.64;97402.09;10432104;28;2153;-52
2023/02/14 04:42:13;;;;;;;;;;;;;;;17.82;32.64;97413.38;10401701;28;2041;-53
2023/02/14 04:47:14;;;;;;;;;;;;;;;17.83;32.67;97404.47;10418062;28;2068;-54
2023/02/14 04:52:14;;;;;;;;;;;;;;;17.83;32.59;97401.06;10416451;28;2039;-53
2023/02/14 04:57:14;;;;;;;;;;;;;;;17.83;32.57;97399.25;10422637;28;2147;-53
2023/02/14 05:02:15;;;;;;;;;;;;;;;17.83;32.69;97391.38;10427504;28;2037;-53
2023/02/14 05:07:15;;;;;;;;;;;;;;;17.85;32.64;97401.63;10427039;28;1950;-49
2023/02/14 05:12:15;;;;;;;;;;;;;;;17.87;32.61;97383.84;10424422;28;1996;-51
2023/02/14 05:17:16;;;;;;;;;;;;;;;17.93;32.52;97376.97;10421249;28;2315;-51
2023/02/14 05:22:16;;;;;;;;;;;;;;;18.01;32.38;97374.84;10432894;28;1990;-53
2023/02/14 05:27:16;;;;;;;;;;;;;;;18.06;32.35;97374.19;10440977;28;1994;-53
2023/02/14 05:32:16;;;;;;;;;;;;;;;18.11;32.08;97377.78;10430127;28;2090;-55
2023/02/14 05:37:17;;;;;;;;;;;;;;;18.15;32.20;97370.25;10428463;28;1998;-56
2023/02/14 05:42:17;;;;;;;;;;;;;;;18.17;32.10;97373.47;10437252;28;1913;-54
2023/02/14 05:47:17;;;;;;;;;;;;;;;18.21;32.09;97379.88;10440592;28;1474;-54
2023/02/14 05:52:17;;;;;;;;;;;;;;;18.23;32.06;97383.91;10419550;28;1907;-53
2023/02/14 05:57:18;;;;;;;;;;;;;;;18.25;31.91;97391.53;10441899;28;1975;-53
2023/02/14 06:02:18;;;;;;;;;;;;;;;18.27;31.81;97392.13;10427161;28;2009;-49
2023/02/14 06:07:18;;;;;;;;;;;;;;;18.27;31.90;97385.06;10427393;28;1978;-55
2023/02/14 06:12:18;;;;;;;;;;;;;;;18.30;31.89;97394.31;10423105;28;1970;-54
2023/02/14 06:17:19;;;;;;;;;;;;;;;18.29;31.98;97398.78;10437194;28;2040;-52
2023/02/14 06:22:20;;;;;;;;;;;;;;;18.33;31.72;97404.38;10423670;28;2063;-53
2023/02/14 06:27:20;;;;;;;;;;;;;;;18.33;31.85;97402.56;10420078;28;1965;-51
2023/02/14 06:32:20;;;;;;;;;;;;;;;18.34;31.86;97400.75;10417038;28;2064;-55
2023/02/14 06:37:21;;;;;;;;;;;;;;;18.37;31.87;97408.16;10431774;28;2120;-52
2023/02/14 06:42:21;;;;;;;;;;;;;;;18.41;31.64;97406.69;10424825;28;2021;-51
2023/02/14 06:47:21;;;;;;;;;;;;;;;18.47;31.51;97411.09;10427360;28;1989;-53
2023/02/14 06:52:21;;;;;;;;;;;;;;;18.51;31.48;97412.25;10423486;28;2032;-53
2023/02/14 06:57:22;;;;;;;;;;;;;;;18.53;31.47;97400.53;10402050;28;2000;-49
2023/02/14 07:02:22;;;;;;;;;;;;;;;18.55;31.53;97402.91;10433570;28;1975;-52
2023/02/14 07:07:22;;;;;;;;;;;;;;;18.57;31.24;97404.31;10427801;28;2140;-54
2023/02/14 07:12:22;;;;;;;;;;;;;;;18.61;31.32;97404.66;10430877;28;1938;-53
2023/02/14 07:17:23;;;;;;;;;;;;;;;18.64;31.38;97398.97;10415226;28;2080;-55
2023/02/14 07:22:23;;;;;;;;;;;;;;;18.70;31.31;97403.34;10415724;28;2085;-55
2023/02/14 07:27:23;;;;;;;;;;;;;;;18.72;31.24;97401.31;10420073;28;2064;-50
2023/02/14 07:32:24;;;;;;;;;;;;;;;18.74;31.22;97399.25;10419168;28;2064;-51
2023/02/14 07:37:24;;;;;;;;;;;;;;;18.76;31.24;97393.78;10403993;28;1967;-52
2023/02/14 07:42:24;;;;;;;;;;;;;;;18.78;31.28;97389.91;10428327;28;2016;-54
2023/02/14 07:47:25;;;;;;;;;;;;;;;18.77;31.22;97379.63;10424607;28;1959;-55
2023/02/14 07:52:25;;;;;;;;;;;;;;;18.79;31.24;97375.75;10418835;28;2159;-50
2023/02/14 07:57:25;;;;;;;;;;;;;;;18.78;31.38;97376.78;10436678;28;2006;-52
2023/02/14 08:02:26;;;;;;;;;;;;;;;18.78;31.13;97376.78;10429268;28;2010;-49
2023/02/14 08:07:26;;;;;;;;;;;;;;;18.77;31.58;97364.69;10428718;28;1945;-54
2023/02/14 08:17:45;;;;;;;;;;;;;;;18.75;31.82;97356.22;10423229;28;1937;-50
2023/02/14 08:22:45;;;;;;;;;;;;;;;18.72;31.98;97350.59;10419410;28;1977;-55
2023/02/14 08:27:46;;;;;;;;;;;;;;;18.71;32.02;97359.50;10424589;28;2219;-51
2023/02/14 08:32:46;;;;;;;;;;;;;;;18.65;32.09;97363.81;10420350;28;1977;-50
2023/02/14 08:37:46;;;;;;;;;;;;;;;18.60;32.26;97361.06;10413338;28;1970;-51
2023/02/14 08:42:47;;;;;;;;;;;;;;;18.55;32.36;97355.66;10417463;28;1991;-53
2023/02/14 08:47:47;;;;;;;;;;;;;;;18.50;32.63;97363.41;10410299;28;2016;-51
2023/02/14 08:52:47;;;;;;;;;;;;;;;18.46;32.35;97362.25;10414937;28;1961;-53
2023/02/14 08:57:48;;;;;;;;;;;;;;;18.40;32.49;97378.84;10416191;28;2105;-51
2023/02/14 09:02:51;;;;;;;;;;;;;;;18.36;32.46;97381.09;10415434;28;2009;-51
2023/02/14 09:07:51;;;;;;;;;;;;;;;18.34;32.37;97390.25;10426161;28;1938;-50
2023/02/14 09:12:51;;;;;;;;;;;;;;;18.30;32.46;97389.06;10414467;28;2189;-52
2023/02/14 09:17:52;;;;;;;;;;;;;;;18.28;32.55;97388.50;10419895;28;1919;-53
2023/02/14 09:22:56;;;;;;;;;;;;;;;18.23;32.68;97381.28;10421795;28;2049;-51
2023/02/14 09:27:56;;;;;;;;;;;;;;;18.20;32.67;97379.06;10425811;28;1937;-52
2023/02/14 09:32:56;;;;;;;;;;;;;;;18.18;32.68;97370.63;10412803;28;1966;-52
2023/02/14 09:37:57;;;;;;;;;;;;;;;18.17;32.93;97376.09;10414967;28;1963;-51
2023/02/14 09:43:02;;;;;;;;;;;;;;;18.13;33.04;97367.88;10422165;28;1953;-53
2023/02/14 09:48:03;;;;;;;;;;;;;;;18.12;33.10;97366.25;10397992;28;2055;-52
2023/02/14 09:53:05;;;;;;;;;;;;;;;18.12;33.30;97360.19;10418878;28;1974;-54
2023/02/14 09:58:13;;;;;;;;;;;;;;;18.11;33.38;97359.41;10416243;28;1903;-52
2023/02/14 10:03:17;;;;;;;;;;;;;;;18.11;33.42;97366.47;10437589;28;1970;-53
2023/02/14 10:08:28;;;;;;;;;;;;;;;18.09;33.46;97361.44;10409984;28;1990;-55
2023/02/14 10:13:29;;;;;;;;;;;;;;;18.09;33.74;97355.38;10426048;28;1910;-53
2023/02/14 10:18:33;;;;;;;;;;;;;;;18.09;33.78;97358.00;10432173;28;2076;-54
2023/02/14 10:23:39;;;;;;;;;;;;;;;18.08;33.85;97356.41;10405939;28;2010;-54
2023/02/14 10:28:44;;;;;;;;;;;;;;;18.09;33.92;97350.16;10403736;28;2056;-53
2023/02/14 10:33:47;;;;;;;;;;;;;;;18.07;33.93;97342.50;10401434;28;2034;-53
2023/02/14 10:38:51;;;;;;;;;;;;;;;18.10;34.14;97351.72;10417616;28;1932;-56
2023/02/14 10:43:51;;;;;;;;;;;;;;;18.08;34.14;97340.66;10417810;28;1967;-55
2023/02/14 10:49:00;;;;;;;;;;;;;;;18.07;34.21;97333.81;10419045;28;2302;-52
2023/02/14 10:54:03;;;;;;;;;;;;;;;18.09;34.25;97331.78;10414026;28;1922;-53
2023/02/14 10:59:32;;;;;;;;;;;;;;;18.08;34.14;97324.91;10427483;28;1989;-54
2023/02/14 11:04:32;;;;;;;;;;;;;;;18.06;34.08;97312.00;10408223;28;1965;-54
2023/02/14 11:09:33;;;;;;;;;;;;;;;18.09;34.14;97316.03;10404054;28;2071;-54
2023/02/14 11:14:35;;;;;;;;;;;;;;;18.09;34.20;97313.41;10427195;28;2010;-55
2023/02/14 11:19:37;;;;;;;;;;;;;;;18.10;34.10;97304.50;10412960;28;1990;-54
2023/02/14 11:24:38;;;;;;;;;;;;;;;18.10;34.10;97302.69;10418194;28;1977;-53
2023/02/14 11:29:42;;;;;;;;;;;;;;;18.11;34.17;97291.19;10422431;28;1942;-54
2023/02/14 11:34:52;;;;;;;;;;;;;;;18.12;34.05;97281.47;10438205;28;2190;-51
2023/02/14 11:39:56;;;;;;;;;;;;;;;18.12;33.97;97274.41;10414625;28;1999;-52
2023/02/14 11:44:58;;;;;;;;;;;;;;;18.10;33.88;97275.63;10413536;28;2073;-52
2023/02/14 11:50:05;;;;;;;;;;;;;;;18.12;33.84;97265.72;10437602;28;1969;-56
2023/02/14 11:55:05;;;;;;;;;;;;;;;18.11;33.89;97270.19;10423750;28;1994;-53
2023/02/14 12:00:16;;;;;;;;;;;;;;;18.11;33.61;97259.69;10443388;28;1985;-55
2023/02/14 12:05:26;;;;;;;;;;;;;;;18.11;33.60;97251.00;10421619;28;1888;-55
2023/02/14 12:10:27;;;;;;;;;;;;;;;18.11;33.62;97243.13;10426977;28;2164;-55
2023/02/14 12:15:48;;;;;;;;;;;;;;;18.10;33.53;97233.63;10424722;28;1876;-54
2023/02/14 12:21:00;;;;;;;;;;;;;;;18.12;33.54;97234.22;10420713;28;1955;-56
2023/02/14 12:26:19;;;;;;;;;;;;;;;18.11;33.48;97230.00;10419695;28;1953;-53
2023/02/14 12:31:20;;;;;;;;;;;;;;;18.15;33.94;97223.28;10427317;28;1955;-52
2023/02/14 12:36:23;;;;;;;;;;;;;;;18.19;34.21;97219.19;10422317;28;1942;-53
2023/02/14 12:41:27;;;;;;;;;;;;;;;18.20;34.30;97211.09;10425145;28;1986;-54
2023/02/14 12:46:30;;;;;;;;;;;;;;;18.23;34.30;97215.09;10412231;28;2053;-54
2023/02/14 12:51:49;;;;;;;;;;;;;;;18.24;34.47;97212.25;10425446;28;1902;-53
2023/02/14 12:56:53;;;;;;;;;;;;;;;18.27;34.60;97203.13;10422014;28;2053;-53
2023/02/14 13:01:54;;;;;;;;;;;;;;;18.26;34.56;97204.19;10411829;28;2092;-55
2023/02/14 13:07:07;;;;;;;;;;;;;;;18.26;34.38;97199.69;10421601;28;1890;-53
2023/02/14 13:12:17;;;;;;;;;;;;;;;18.24;34.39;97188.63;10402938;28;1952;-54
2023/02/14 13:17:20;;;;;;;;;;;;;;;18.26;34.26;97180.56;10410281;28;1949;-55
2023/02/14 13:22:21;;;;;;;;;;;;;;;18.31;34.23;97167.53;10414730;28;2127;-54
2023/02/14 13:27:22;;;;;;;;;;;;;;;18.36;34.15;97170.31;10415685;28;1915;-53
2023/02/14 13:32:25;;;;;;;;;;;;;;;18.42;33.97;97167.56;10421894;28;1952;-53
2023/02/14 13:37:26;;;;;;;;;;;;;;;18.46;34.18;97163.50;10428433;28;2358;-52
2023/02/14 13:42:45;;;;;;;;;;;;;;;18.54;34.04;97168.44;10428056;28;1938;-53
2023/02/14 13:47:45;;;;;;;;;;;;;;;18.62;34.14;97162.84;10422119;28;1882;-51
2023/02/14 13:52:46;;;;;;;;;;;;;;;18.66;33.71;97156.09;10429216;28;1880;-52
2023/02/14 13:57:58;;;;;;;;;;;;;;;18.71;33.54;97154.63;10431608;28;2023;-53
2023/02/14 14:02:58;;;;;;;;;;;;;;;18.73;33.49;97152.56;10423491;28;1988;-53
2023/02/14 14:08:17;;;;;;;;;;;;;;;18.74;33.65;97149.72;10410713;28;1923;-53
2023/02/14 14:13:36;;;;;;;;;;;;;;;18.81;33.42;97149.59;10425708;28;1977;-52
2023/02/14 14:18:36;;;;;;;;;;;;;;;18.83;33.30;97140.47;10430628;28;1946;-54
2023/02/14 14:23:37;;;;;;;;;;;;;;;18.77;33.36;97133.50;10435999;28;1975;-53
2023/02/14 14:28:37;;;;;;;;;;;;;;;18.72;33.33;97140.44;10420373;28;1879;-51
2023/02/14 14:33:37;;;;;;;;;;;;;;;18.66;33.46;97136.91;10430315;28;1850;-54
2023/02/14 14:38:45;;;;;;;;;;;;;;;18.63;33.36;97130.28;10425452;28;1982;-52
2023/02/14 14:43:45;;;;;;;;;;;;;;;18.58;33.49;97124.13;10421201;28;1923;-52
2023/02/14 14:48:46;;;;;;;;;;;;;;;18.55;33.47;97127.19;10424263;28;2053;-52
2023/02/14 14:53:47;;;;;;;;;;;;;;;18.57;33.50;97123.31;10429842;28;2025;-52
2023/02/14 14:58:48;;;;;;;;;;;;;;;18.58;33.47;97118.88;10425835;28;1941;-53
2023/02/14 15:03:48;;;;;;;;;;;;;;;18.61;33.54;97113.97;10413570;28;1961;-52
2023/02/14 15:08:50;;;;;;;;;;;;;;;18.64;33.53;97103.00;10422829;28;1931;-52
2023/02/14 15:13:53;;;;;;;;;;;;;;;18.71;33.54;97115.22;10424463;28;1903;-54
2023/02/14 15:18:57;;;;;;;;;;;;;;;18.74;33.56;97106.88;10427638;28;2052;-50
2023/02/14 15:23:57;;;;;;;;;;;;;;;18.74;33.47;97109.50;10418611;28;1914;-54
2023/02/14 15:28:58;;;;;;;;;;;;;;;18.77;33.49;97106.44;10418238;28;1946;-55
2023/02/14 15:34:00;;;;;;;;;;;;;;;18.79;33.49;97110.44;10424606;28;1942;-55
2023/02/14 15:39:01;;;;;;;;;;;;;;;18.83;33.40;97111.56;10425872;28;1969;-54
2023/02/14 15:44:01;;;;;;;;;;;;;;;18.86;33.33;97116.34;10399436;28;1961;-54
2023/02/14 15:49:04;;;;;;;;;;;;;;;18.87;33.36;97125.84;10426195;28;2093;-51
2023/02/14 15:54:06;;;;;;;;;;;;;;;18.94;33.32;97123.09;10435497;28;2010;-53
2023/02/14 15:59:11;;;;;;;;;;;;;;;18.95;33.36;97125.50;10400451;28;1998;-52
2023/02/14 16:04:11;;;;;;;;;;;;;;;19.00;33.33;97120.31;10412749;28;2106;-53
2023/02/14 16:09:27;;;;;;;;;;;;;;;19.03;33.06;97117.25;10412371;28;1957;-53
2023/02/14 16:14:33;;;;;;;;;;;;;;;19.04;33.02;97121.47;10416086;28;2077;-53
2023/02/14 16:19:41;;;;;;;;;;;;;;;19.06;32.97;97122.03;10423108;28;2030;-51
2023/02/14 16:24:41;;;;;;;;;;;;;;;19.05;32.92;97125.72;10421248;28;2000;-51
2023/02/14 16:29:41;;;;;;;;;;;;;;;19.05;32.91;97125.72;10408428;28;1957;-51
2023/02/14 16:34:42;;;;;;;;;;;;;;;19.04;33.00;97125.94;10428392;28;1980;-49
2023/02/14 16:39:42;;;;;;;;;;;;;;;19.03;32.99;97130.41;10422912;28;2013;-48
2023/02/14 16:44:43;;;;;;;;;;;;;;;19.01;32.96;97132.47;10429343;28;1918;-53
2023/02/14 16:49:43;;;;;;;;;;;;;;;19.03;32.67;97133.03;10418731;28;1962;-51
2023/02/14 16:54:43;;;;;;;;;;;;;;;18.98;32.90;97129.50;10426191;28;1954;-54
2023/02/14 16:59:43;;;;;;;;;;;;;;;19.00;32.94;97135.31;10421397;28;2064;-54
2023/02/14 17:04:44;;;;;;;;;;;;;;;19.00;32.83;97137.94;10421215;28;1971;-54
2023/02/14 17:09:45;;;;;;;;;;;;;;;19.00;32.85;97136.09;10427060;28;1985;-54
2023/02/14 17:14:46;;;;;;;;;;;;;;;19.01;32.87;97142.16;10416673;28;1903;-55
2023/02/14 17:19:47;;;;;;;;;;;;;;;19.00;32.83;97143.19;10431063;28;1897;-54
2023/02/14 17:24:47;;;;;;;;;;;;;;;19.04;32.77;97153.00;10423535;28;1973;-51
2023/02/14 17:29:50;;;;;;;;;;;;;;;19.07;32.64;97149.13;10424889;28;1942;-53
2023/02/14 17:34:50;;;;;;;;;;;;;;;19.09;32.61;97155.75;10417634;28;1903;-53
2023/02/14 17:39:51;;;;;;;;;;;;;;;19.12;32.60;97151.88;10422784;28;2064;-52
2023/02/14 17:44:51;;;;;;;;;;;;;;;19.13;32.36;97142.94;10419996;28;2045;-54
2023/02/14 17:49:52;;;;;;;;;;;;;;;19.14;32.25;97152.44;10421691;28;1923;-54
2023/02/14 17:54:52;;;;;;;;;;;;;;;19.16;32.32;97153.81;10421035;28;2070;-53
2023/02/14 17:59:52;;;;;;;;;;;;;;;19.16;32.45;97156.44;10422544;28;1986;-52
2023/02/14 18:04:53;;;;;;;;;;;;;;;19.16;32.27;97148.56;10420785;28;2029;-52
2023/02/14 18:09:54;;;;;;;;;;;;;;;19.16;32.36;97147.75;10436752;28;2010;-54
2023/02/14 18:14:55;;;;;;;;;;;;;;;19.15;32.39;97151.41;10427811;28;2053;-52
2023/02/14 18:19:55;;;;;;;;;;;;;;;19.16;32.28;97145.13;10437612;28;1951;-53
2023/02/14 18:24:57;;;;;;;;;;;;;;;19.14;32.37;97145.38;10424034;28;1957;-52
2023/02/14 18:29:57;;;;;;;;;;;;;;;19.16;32.16;97138.03;10410268;28;1906;-53
2023/02/14 18:34:58;;;;;;;;;;;;;;;19.16;32.27;97137.25;10421920;28;2117;-53
2023/02/14 18:39:58;;;;;;;;;;;;;;;19.15;32.22;97136.44;10428542;28;1947;-52
2023/02/14 18:44:58;;;;;;;;;;;;;;;19.16;32.25;97132.78;10425058;28;1937;-49
2023/02/14 18:49:58;;;;;;;;;;;;;;;19.16;32.16;97132.78;10429494;28;2025;-52
2023/02/14 18:54:59;;;;;;;;;;;;;;;19.17;32.22;97131.75;10423933;28;1760;-49
2023/02/14 18:59:59;;;;;;;;;;;;;;;19.17;32.31;97125.69;10427540;28;1778;-51
2023/02/14 19:04:59;;;;;;;;;;;;;;;19.18;32.07;97120.22;10433088;28;1906;-52
2023/02/14 19:10:00;;;;;;;;;;;;;;;19.18;32.26;97114.94;10426950;28;1919;-51
2023/02/14 19:15:00;;;;;;;;;;;;;;;19.22;32.29;97116.09;10426764;28;2027;-47
2023/02/14 19:20:07;;;;;;;;;;;;;;;19.25;32.17;97110.34;10428304;28;1938;-52
2023/02/14 19:25:07;;;;;;;;;;;;;;;19.27;32.24;97110.13;10423047;28;2000;-51
2023/02/14 19:30:07;;;;;;;;;;;;;;;19.29;32.25;97108.03;10432593;28;1955;-49
2023/02/14 19:35:08;;;;;;;;;;;;;;;19.30;32.31;97110.47;10425702;28;1911;-49
2023/02/14 19:40:09;;;;;;;;;;;;;;;19.32;32.23;97103.16;10429173;28;1954;-53
2023/02/14 19:45:09;;;;;;;;;;;;;;;19.33;32.17;97096.88;10420136;28;1973;-53
2023/02/14 19:50:10;;;;;;;;;;;;;;;19.33;32.34;97096.88;10428733;28;2007;-53
2023/02/14 19:55:16;;;;;;;;;;;;;;;19.32;32.22;97095.25;10427988;28;2017;-54
2023/02/14 20:00:16;;;;;;;;;;;;;;;19.32;32.29;97090.00;10424182;28;1948;-53
2023/02/14 20:05:17;;;;;;;;;;;;;;;19.32;32.23;97084.75;10416935;28;1922;-51
2023/02/14 20:10:17;;;;;;;;;;;;;;;19.31;32.29;97083.13;10423008;28;1961;-49
2023/02/14 20:15:17;;;;;;;;;;;;;;;19.32;32.21;97083.94;10425357;28;2207;-52
2023/02/14 20:20:18;;;;;;;;;;;;;;;19.31;32.06;97091.03;10424720;28;2023;-52
2023/02/14 20:25:18;;;;;;;;;;;;;;;19.30;32.17;97075.47;10431013;28;1746;-58
2023/02/14 20:30:19;;;;;;;;;;;;;;;19.30;32.00;97080.75;10433154;28;1680;-50
2023/02/14 20:35:19;;;;;;;;;;;;;;;19.30;31.97;97086.00;10426942;28;1974;-52
2023/02/14 20:40:20;;;;;;;;;;;;;;;19.29;31.88;97065.97;10438785;28;1970;-51
2023/02/14 20:45:20;;;;;;;;;;;;;;;19.26;31.96;97069.09;10423058;28;1934;-51
2023/02/14 20:50:21;;;;;;;;;;;;;;;19.23;31.91;97072.19;10420662;28;1953;-52
2023/02/14 20:55:21;;;;;;;;;;;;;;;19.18;32.22;97059.75;10426172;28;2089;-54
2023/02/14 21:00:24;;;;;;;;;;;;;;;19.16;31.98;97055.75;10428196;28;1984;-52
2023/02/14 21:05:24;;;;;;;;;;;;;;;19.10;32.05;97044.31;10433517;28;1981;-52
2023/02/14 21:10:26;;;;;;;;;;;;;;;19.06;32.18;97048.44;10417276;28;2180;-51
2023/02/14 21:15:26;;;;;;;;;;;;;;;19.03;32.13;97042.88;10422749;28;2088;-53
2023/02/14 21:20:26;;;;;;;;;;;;;;;18.99;32.18;97045.16;10406719;28;2097;-53
2023/02/14 21:25:27;;;;;;;;;;;;;;;18.96;32.34;97040.38;10424925;28;2065;-49
2023/02/14 21:30:31;;;;;;;;;;;;;;;18.93;32.26;97043.47;10419242;28;1953;-51
2023/02/14 21:35:34;;;;;;;;;;;;;;;18.90;32.29;97043.16;10418986;28;1989;-53
2023/02/14 21:40:34;;;;;;;;;;;;;;;18.89;32.29;97041.53;10420082;28;2097;-52
2023/02/14 21:45:52;;;;;;;;;;;;;;;18.86;32.20;97034.91;10426658;28;1962;-53
2023/02/14 21:50:53;;;;;;;;;;;;;;;18.85;32.17;97025.44;10419260;28;1978;-50
2023/02/14 21:55:53;;;;;;;;;;;;;;;18.81;32.09;97029.56;10425700;28;1967;-53
2023/02/14 22:00:53;;;;;;;;;;;;;;;18.76;32.01;97018.94;10433788;28;2230;-52
2023/02/14 22:06:03;;;;;;;;;;;;;;;18.73;32.05;97010.72;10426564;28;1997;-52
2023/02/14 22:11:03;;;;;;;;;;;;;;;18.68;31.95;97006.16;10435146;28;2232;-52
2023/02/14 22:16:05;;;;;;;;;;;;;;;18.65;31.96;96999.53;10421972;28;2031;-49
2023/02/14 22:21:06;;;;;;;;;;;;;;;18.64;31.94;97002.41;10428798;28;2017;-52
2023/02/14 22:26:10;;;;;;;;;;;;;;;18.59;31.84;96997.03;10426552;28;2057;-48
2023/02/14 22:31:10;;;;;;;;;;;;;;;18.58;31.96;96991.00;10424759;28;2018;-50
2023/02/14 22:36:11;;;;;;;;;;;;;;;18.56;32.01;96992.25;10422377;28;2110;-53
2023/02/14 22:41:12;;;;;;;;;;;;;;;18.54;32.04;96994.31;10425836;28;1906;-51
2023/02/14 22:46:14;;;;;;;;;;;;;;;18.50;32.01;96986.09;10435754;28;1973;-50
2023/02/14 22:51:30;;;;;;;;;;;;;;;18.48;32.02;96987.34;10427834;28;2000;-52
2023/02/14 22:56:33;;;;;;;;;;;;;;;18.46;32.02;96989.41;10427224;28;2173;-49
2023/02/14 23:01:33;;;;;;;;;;;;;;;18.45;31.96;96987.81;10431499;28;1985;-49
2023/02/14 23:06:34;;;;;;;;;;;;;;;18.44;31.97;96986.22;10419448;28;1887;-51
2023/02/14 23:11:35;;;;;;;;;;;;;;;18.40;31.94;96990.31;10437285;28;1899;-51
2023/02/14 23:21:54;;;;;;;;;;;;;;;18.34;31.99;96985.97;10418678;28;2024;-54
2023/02/14 23:26:54;;;;;;;;;;;;;;;18.35;32.04;96974.44;10426680;28;1958;-55
2023/02/14 23:31:54;;;;;;;;;;;;;;;18.32;31.96;96975.69;10426975;28;2037;-55
2023/02/14 23:36:55;;;;;;;;;;;;;;;18.30;32.10;96964.63;10426662;28;1953;-51
2023/02/14 23:41:55;;;;;;;;;;;;;;;18.28;32.35;96969.28;10412259;28;1938;-53
2023/02/14 23:46:57;;;;;;;;;;;;;;;18.27;32.35;96964.28;10409970;28;2007;-52
2023/02/14 23:51:57;;;;;;;;;;;;;;;18.27;32.40;96964.28;10412834;28;1989;-49
2023/02/14 23:56:57;;;;;;;;;;;;;;;18.24;32.43;96956.84;10429861;28;2053;-52
